sensor_id;sensor_type;location;lat;lon;timestamp;temperature;humidity
74171;DHT22;62526;50.948;6.590;2022-12-20T00:01:17;12.60;93.90
74171;DHT22;62526;50.948;6.590;2022-12-20T00:04:19;12.60;94.00
74171;DHT22;62526;50.948;6.590;2022-12-20T00:06:56;12.60;93.90
74171;DHT22;62526;50.948;6.590;2022-12-20T00:12:32;12.50;94.10
74171;DHT22;62526;50.948;6.590;2022-12-20T00:15:16;12.50;94.30
74171;DHT22;62526;50.948;6.590;2022-12-20T00:17:44;12.40;94.70
74171;DHT22;62526;50.948;6.590;2022-12-20T00:20:13;12.20;95.50
74171;DHT22;62526;50.948;6.590;2022-12-20T00:22:44;12.10;95.90
74171;DHT22;62526;50.948;6.590;2022-12-20T00:25:18;12.00;96.10
74171;DHT22;62526;50.948;6.590;2022-12-20T00:30:23;11.80;96.50
74171;DHT22;62526;50.948;6.590;2022-12-20T00:32:59;11.80;96.50
74171;DHT22;62526;50.948;6.590;2022-12-20T00:35:28;11.80;96.60
74171;DHT22;62526;50.948;6.590;2022-12-20T00:37:58;11.70;96.60
74171;DHT22;62526;50.948;6.590;2022-12-20T00:40:30;11.80;96.60
74171;DHT22;62526;50.948;6.590;2022-12-20T00:43:01;11.70;96.60
74171;DHT22;62526;50.948;6.590;2022-12-20T00:48:41;11.90;96.50
74171;DHT22;62526;50.948;6.590;2022-12-20T00:54:04;12.00;96.00
74171;DHT22;62526;50.948;6.590;2022-12-20T00:56:58;12.10;95.80
74171;DHT22;62526;50.948;6.590;2022-12-20T00:59:32;12.20;95.60
74171;DHT22;62526;50.948;6.590;2022-12-20T01:02:10;12.20;95.40
74171;DHT22;62526;50.948;6.590;2022-12-20T01:04:47;12.20;95.30
74171;DHT22;62526;50.948;6.590;2022-12-20T01:07:18;12.20;95.20
74171;DHT22;62526;50.948;6.590;2022-12-20T01:09:51;12.20;95.10
74171;DHT22;62526;50.948;6.590;2022-12-20T01:15:14;12.10;95.30
74171;DHT22;62526;50.948;6.590;2022-12-20T01:17:55;12.00;95.60
74171;DHT22;62526;50.948;6.590;2022-12-20T01:20:32;11.90;95.70
74171;DHT22;62526;50.948;6.590;2022-12-20T01:23:13;11.90;95.80
74171;DHT22;62526;50.948;6.590;2022-12-20T01:25:42;11.90;96.00
74171;DHT22;62526;50.948;6.590;2022-12-20T01:28:11;11.90;96.00
74171;DHT22;62526;50.948;6.590;2022-12-20T01:30:46;11.80;95.90
74171;DHT22;62526;50.948;6.590;2022-12-20T01:33:27;11.80;96.10
74171;DHT22;62526;50.948;6.590;2022-12-20T01:36:26;11.70;96.30
74171;DHT22;62526;50.948;6.590;2022-12-20T01:38:58;11.70;96.70
74171;DHT22;62526;50.948;6.590;2022-12-20T01:41:32;11.80;96.70
74171;DHT22;62526;50.948;6.590;2022-12-20T01:47:10;11.90;96.40
74171;DHT22;62526;50.948;6.590;2022-12-20T01:49:41;11.90;96.50
74171;DHT22;62526;50.948;6.590;2022-12-20T01:52:17;11.90;96.30
74171;DHT22;62526;50.948;6.590;2022-12-20T01:54:47;11.90;96.30
74171;DHT22;62526;50.948;6.590;2022-12-20T01:57:16;12.00;96.20
74171;DHT22;62526;50.948;6.590;2022-12-20T01:59:45;12.00;96.10
74171;DHT22;62526;50.948;6.590;2022-12-20T02:02:13;12.00;96.10
74171;DHT22;62526;50.948;6.590;2022-12-20T02:04:42;11.90;96.20
74171;DHT22;62526;50.948;6.590;2022-12-20T02:07:11;11.90;96.30
74171;DHT22;62526;50.948;6.590;2022-12-20T02:09:38;11.90;96.30
74171;DHT22;62526;50.948;6.590;2022-12-20T02:12:19;11.90;96.40
74171;DHT22;62526;50.948;6.590;2022-12-20T02:18:04;11.80;96.60
74171;DHT22;62526;50.948;6.590;2022-12-20T02:20:45;11.70;96.60
74171;DHT22;62526;50.948;6.590;2022-12-20T02:31:41;11.60;96.90
74171;DHT22;62526;50.948;6.590;2022-12-20T02:34:08;11.50;97.00
74171;DHT22;62526;50.948;6.590;2022-12-20T02:36:35;11.50;97.20
74171;DHT22;62526;50.948;6.590;2022-12-20T02:39:05;11.40;97.40
74171;DHT22;62526;50.948;6.590;2022-12-20T02:41:35;11.40;97.50
74171;DHT22;62526;50.948;6.590;2022-12-20T02:44:04;11.30;97.60
74171;DHT22;62526;50.948;6.590;2022-12-20T02:46:53;11.30;97.70
74171;DHT22;62526;50.948;6.590;2022-12-20T02:49:25;11.30;97.80
74171;DHT22;62526;50.948;6.590;2022-12-20T02:57:17;11.20;98.70
74171;DHT22;62526;50.948;6.590;2022-12-20T02:59:50;11.20;98.90
74171;DHT22;62526;50.948;6.590;2022-12-20T03:02:24;11.20;99.10
74171;DHT22;62526;50.948;6.590;2022-12-20T03:04:54;11.20;99.50
74171;DHT22;62526;50.948;6.590;2022-12-20T03:07:31;11.10;99.40
74171;DHT22;62526;50.948;6.590;2022-12-20T03:10:03;11.10;99.80
74171;DHT22;62526;50.948;6.590;2022-12-20T03:12:31;11.00;99.90
74171;DHT22;62526;50.948;6.590;2022-12-20T03:14:58;11.00;99.90
74171;DHT22;62526;50.948;6.590;2022-12-20T03:17:25;10.90;99.90
74171;DHT22;62526;50.948;6.590;2022-12-20T03:19:53;10.90;99.90
74171;DHT22;62526;50.948;6.590;2022-12-20T03:22:22;10.80;99.90
74171;DHT22;62526;50.948;6.590;2022-12-20T03:24:50;10.80;99.90
74171;DHT22;62526;50.948;6.590;2022-12-20T03:27:21;10.70;99.90
74171;DHT22;62526;50.948;6.590;2022-12-20T03:29:49;10.80;99.90
74171;DHT22;62526;50.948;6.590;2022-12-20T03:32:19;10.60;99.90
74171;DHT22;62526;50.948;6.590;2022-12-20T03:34:45;10.70;99.90
74171;DHT22;62526;50.948;6.590;2022-12-20T03:37:13;10.70;99.90
74171;DHT22;62526;50.948;6.590;2022-12-20T03:39:41;10.60;99.90
74171;DHT22;62526;50.948;6.590;2022-12-20T03:42:10;10.60;99.90
74171;DHT22;62526;50.948;6.590;2022-12-20T03:44:38;10.60;99.90
74171;DHT22;62526;50.948;6.590;2022-12-20T03:47:06;10.60;99.90
74171;DHT22;62526;50.948;6.590;2022-12-20T03:49:33;10.50;99.90
74171;DHT22;62526;50.948;6.590;2022-12-20T03:52:02;10.50;99.90
74171;DHT22;62526;50.948;6.590;2022-12-20T03:54:29;10.50;99.90
74171;DHT22;62526;50.948;6.590;2022-12-20T03:56:56;10.40;99.90
74171;DHT22;62526;50.948;6.590;2022-12-20T03:59:23;10.40;99.90
74171;DHT22;62526;50.948;6.590;2022-12-20T04:01:50;10.40;99.90
74171;DHT22;62526;50.948;6.590;2022-12-20T04:04:18;10.30;99.90
74171;DHT22;62526;50.948;6.590;2022-12-20T04:06:50;10.30;99.90
74171;DHT22;62526;50.948;6.590;2022-12-20T04:09:17;10.30;99.90
74171;DHT22;62526;50.948;6.590;2022-12-20T04:11:44;10.30;99.90
74171;DHT22;62526;50.948;6.590;2022-12-20T04:14:13;10.30;99.90
74171;DHT22;62526;50.948;6.590;2022-12-20T04:16:41;10.30;99.90
74171;DHT22;62526;50.948;6.590;2022-12-20T04:19:08;10.30;99.90
74171;DHT22;62526;50.948;6.590;2022-12-20T04:21:36;10.30;99.90
74171;DHT22;62526;50.948;6.590;2022-12-20T04:24:04;10.30;99.90
74171;DHT22;62526;50.948;6.590;2022-12-20T04:26:31;10.20;99.90
74171;DHT22;62526;50.948;6.590;2022-12-20T04:28:59;10.20;99.90
74171;DHT22;62526;50.948;6.590;2022-12-20T04:31:26;10.20;99.90
74171;DHT22;62526;50.948;6.590;2022-12-20T04:33:53;10.20;99.90
74171;DHT22;62526;50.948;6.590;2022-12-20T04:36:21;10.20;99.90
74171;DHT22;62526;50.948;6.590;2022-12-20T04:38:49;10.30;99.90
74171;DHT22;62526;50.948;6.590;2022-12-20T04:41:15;10.30;99.90
74171;DHT22;62526;50.948;6.590;2022-12-20T04:43:51;10.30;99.90
74171;DHT22;62526;50.948;6.590;2022-12-20T04:46:21;10.40;99.90
74171;DHT22;62526;50.948;6.590;2022-12-20T04:48:48;10.40;99.90
74171;DHT22;62526;50.948;6.590;2022-12-20T04:54:01;10.50;99.90
74171;DHT22;62526;50.948;6.590;2022-12-20T04:56:28;10.50;99.90
74171;DHT22;62526;50.948;6.590;2022-12-20T04:58:58;10.50;99.90
74171;DHT22;62526;50.948;6.590;2022-12-20T05:01:26;10.50;99.90
74171;DHT22;62526;50.948;6.590;2022-12-20T05:03:54;10.50;99.90
74171;DHT22;62526;50.948;6.590;2022-12-20T05:06:24;10.50;99.90
74171;DHT22;62526;50.948;6.590;2022-12-20T05:08:56;10.50;99.90
74171;DHT22;62526;50.948;6.590;2022-12-20T05:11:25;10.50;99.90
74171;DHT22;62526;50.948;6.590;2022-12-20T05:13:52;10.40;99.90
74171;DHT22;62526;50.948;6.590;2022-12-20T05:16:23;10.40;99.90
74171;DHT22;62526;50.948;6.590;2022-12-20T05:18:50;10.40;99.90
74171;DHT22;62526;50.948;6.590;2022-12-20T05:21:25;10.30;99.90
74171;DHT22;62526;50.948;6.590;2022-12-20T05:23:58;10.30;99.90
74171;DHT22;62526;50.948;6.590;2022-12-20T05:26:33;10.30;99.90
74171;DHT22;62526;50.948;6.590;2022-12-20T05:29:04;10.30;99.90
74171;DHT22;62526;50.948;6.590;2022-12-20T05:31:35;10.30;99.90
74171;DHT22;62526;50.948;6.590;2022-12-20T05:34:05;10.30;99.90
74171;DHT22;62526;50.948;6.590;2022-12-20T05:36:33;10.30;99.90
74171;DHT22;62526;50.948;6.590;2022-12-20T05:39:15;10.30;99.90
74171;DHT22;62526;50.948;6.590;2022-12-20T05:42:00;10.30;99.90
74171;DHT22;62526;50.948;6.590;2022-12-20T05:44:27;10.30;99.90
74171;DHT22;62526;50.948;6.590;2022-12-20T05:46:54;10.30;99.90
74171;DHT22;62526;50.948;6.590;2022-12-20T05:49:21;10.40;99.90
74171;DHT22;62526;50.948;6.590;2022-12-20T05:51:48;10.40;99.90
74171;DHT22;62526;50.948;6.590;2022-12-20T05:54:15;10.40;99.90
74171;DHT22;62526;50.948;6.590;2022-12-20T05:56:41;10.40;99.90
74171;DHT22;62526;50.948;6.590;2022-12-20T05:59:08;10.40;99.90
74171;DHT22;62526;50.948;6.590;2022-12-20T06:01:34;10.40;99.90
74171;DHT22;62526;50.948;6.590;2022-12-20T06:04:01;10.40;99.90
74171;DHT22;62526;50.948;6.590;2022-12-20T06:06:28;10.40;99.90
74171;DHT22;62526;50.948;6.590;2022-12-20T06:08:54;10.40;99.90
74171;DHT22;62526;50.948;6.590;2022-12-20T06:11:21;10.40;99.90
74171;DHT22;62526;50.948;6.590;2022-12-20T06:13:48;10.40;99.90
74171;DHT22;62526;50.948;6.590;2022-12-20T06:16:16;10.50;99.90
74171;DHT22;62526;50.948;6.590;2022-12-20T06:18:43;10.50;99.90
74171;DHT22;62526;50.948;6.590;2022-12-20T06:21:09;10.50;99.90
74171;DHT22;62526;50.948;6.590;2022-12-20T06:23:36;10.50;99.90
74171;DHT22;62526;50.948;6.590;2022-12-20T06:26:04;10.50;99.90
74171;DHT22;62526;50.948;6.590;2022-12-20T06:28:29;10.60;99.90
74171;DHT22;62526;50.948;6.590;2022-12-20T06:30:57;10.60;99.90
74171;DHT22;62526;50.948;6.590;2022-12-20T06:33:23;10.60;99.90
74171;DHT22;62526;50.948;6.590;2022-12-20T06:35:50;10.50;99.90
74171;DHT22;62526;50.948;6.590;2022-12-20T06:38:17;10.60;99.90
74171;DHT22;62526;50.948;6.590;2022-12-20T06:40:44;10.50;99.90
74171;DHT22;62526;50.948;6.590;2022-12-20T06:43:11;10.50;99.90
74171;DHT22;62526;50.948;6.590;2022-12-20T06:45:38;10.50;99.90
74171;DHT22;62526;50.948;6.590;2022-12-20T06:48:04;10.50;99.90
74171;DHT22;62526;50.948;6.590;2022-12-20T06:50:31;10.50;99.90
74171;DHT22;62526;50.948;6.590;2022-12-20T06:52:59;10.50;99.90
74171;DHT22;62526;50.948;6.590;2022-12-20T06:55:25;10.50;99.90
74171;DHT22;62526;50.948;6.590;2022-12-20T06:57:52;10.40;99.90
74171;DHT22;62526;50.948;6.590;2022-12-20T07:00:19;10.40;99.90
74171;DHT22;62526;50.948;6.590;2022-12-20T07:02:48;10.40;99.90
74171;DHT22;62526;50.948;6.590;2022-12-20T07:05:15;10.40;99.90
74171;DHT22;62526;50.948;6.590;2022-12-20T07:07:41;10.40;99.90
74171;DHT22;62526;50.948;6.590;2022-12-20T07:10:08;10.30;99.90
74171;DHT22;62526;50.948;6.590;2022-12-20T07:12:35;10.40;99.90
74171;DHT22;62526;50.948;6.590;2022-12-20T07:15:02;10.40;99.90
74171;DHT22;62526;50.948;6.590;2022-12-20T07:17:29;10.40;99.90
74171;DHT22;62526;50.948;6.590;2022-12-20T07:19:57;10.40;99.90
74171;DHT22;62526;50.948;6.590;2022-12-20T07:22:25;10.40;99.90
74171;DHT22;62526;50.948;6.590;2022-12-20T07:24:51;10.40;99.90
74171;DHT22;62526;50.948;6.590;2022-12-20T07:27:19;10.40;99.90
74171;DHT22;62526;50.948;6.590;2022-12-20T07:29:45;10.40;99.90
74171;DHT22;62526;50.948;6.590;2022-12-20T07:32:12;10.30;99.90
74171;DHT22;62526;50.948;6.590;2022-12-20T07:34:38;10.30;99.90
74171;DHT22;62526;50.948;6.590;2022-12-20T07:40:01;10.30;99.90
74171;DHT22;62526;50.948;6.590;2022-12-20T07:42:28;10.30;99.90
74171;DHT22;62526;50.948;6.590;2022-12-20T07:44:55;10.30;99.90
74171;DHT22;62526;50.948;6.590;2022-12-20T07:47:21;10.40;99.90
74171;DHT22;62526;50.948;6.590;2022-12-20T07:49:50;10.40;99.90
74171;DHT22;62526;50.948;6.590;2022-12-20T07:52:20;10.40;99.90
74171;DHT22;62526;50.948;6.590;2022-12-20T07:54:50;10.40;99.90
74171;DHT22;62526;50.948;6.590;2022-12-20T07:57:17;10.50;99.90
74171;DHT22;62526;50.948;6.590;2022-12-20T07:59:44;10.50;99.90
74171;DHT22;62526;50.948;6.590;2022-12-20T08:02:10;10.50;99.90
74171;DHT22;62526;50.948;6.590;2022-12-20T08:04:37;10.50;99.90
74171;DHT22;62526;50.948;6.590;2022-12-20T08:07:05;10.60;99.90
74171;DHT22;62526;50.948;6.590;2022-12-20T08:09:34;10.70;99.90
74171;DHT22;62526;50.948;6.590;2022-12-20T08:11:59;10.70;99.90
74171;DHT22;62526;50.948;6.590;2022-12-20T08:14:25;10.80;99.90
74171;DHT22;62526;50.948;6.590;2022-12-20T08:16:55;10.80;99.90
74171;DHT22;62526;50.948;6.590;2022-12-20T08:19:22;10.90;99.90
74171;DHT22;62526;50.948;6.590;2022-12-20T08:21:49;10.90;99.90
74171;DHT22;62526;50.948;6.590;2022-12-20T08:24:15;10.90;99.90
74171;DHT22;62526;50.948;6.590;2022-12-20T08:26:43;10.90;99.90
74171;DHT22;62526;50.948;6.590;2022-12-20T08:31:54;10.90;99.90
74171;DHT22;62526;50.948;6.590;2022-12-20T08:37:07;11.00;99.90
74171;DHT22;62526;50.948;6.590;2022-12-20T08:39:34;11.00;99.90
74171;DHT22;62526;50.948;6.590;2022-12-20T08:42:00;11.00;99.90
74171;DHT22;62526;50.948;6.590;2022-12-20T08:44:27;11.00;99.90
74171;DHT22;62526;50.948;6.590;2022-12-20T08:46:53;11.10;99.90
74171;DHT22;62526;50.948;6.590;2022-12-20T08:49:20;11.10;99.90
74171;DHT22;62526;50.948;6.590;2022-12-20T08:51:47;11.10;99.90
74171;DHT22;62526;50.948;6.590;2022-12-20T08:54:14;11.20;99.90
74171;DHT22;62526;50.948;6.590;2022-12-20T08:56:41;11.20;99.90
74171;DHT22;62526;50.948;6.590;2022-12-20T08:59:07;11.20;99.90
74171;DHT22;62526;50.948;6.590;2022-12-20T09:01:35;11.20;99.80
74171;DHT22;62526;50.948;6.590;2022-12-20T09:04:03;11.30;99.90
74171;DHT22;62526;50.948;6.590;2022-12-20T09:06:33;11.30;99.70
74171;DHT22;62526;50.948;6.590;2022-12-20T09:08:58;11.40;99.50
74171;DHT22;62526;50.948;6.590;2022-12-20T09:11:25;11.50;99.20
74171;DHT22;62526;50.948;6.590;2022-12-20T09:13:52;11.50;99.00
74171;DHT22;62526;50.948;6.590;2022-12-20T09:16:19;11.60;98.80
74171;DHT22;62526;50.948;6.590;2022-12-20T09:18:49;11.60;98.50
74171;DHT22;62526;50.948;6.590;2022-12-20T09:21:16;11.60;98.40
74171;DHT22;62526;50.948;6.590;2022-12-20T09:23:42;11.60;98.30
74171;DHT22;62526;50.948;6.590;2022-12-20T09:26:10;11.70;98.40
74171;DHT22;62526;50.948;6.590;2022-12-20T09:28:36;11.70;98.40
74171;DHT22;62526;50.948;6.590;2022-12-20T09:31:04;11.70;98.30
74171;DHT22;62526;50.948;6.590;2022-12-20T09:33:31;11.80;98.40
74171;DHT22;62526;50.948;6.590;2022-12-20T09:35:57;11.80;98.20
74171;DHT22;62526;50.948;6.590;2022-12-20T09:38:24;11.70;98.30
74171;DHT22;62526;50.948;6.590;2022-12-20T09:40:53;11.70;98.60
74171;DHT22;62526;50.948;6.590;2022-12-20T09:43:19;11.60;98.80
74171;DHT22;62526;50.948;6.590;2022-12-20T09:45:47;11.60;99.10
74171;DHT22;62526;50.948;6.590;2022-12-20T09:48:15;11.50;99.10
74171;DHT22;62526;50.948;6.590;2022-12-20T09:50:46;11.50;99.40
74171;DHT22;62526;50.948;6.590;2022-12-20T09:53:15;11.50;99.40
74171;DHT22;62526;50.948;6.590;2022-12-20T09:55:42;11.50;99.50
74171;DHT22;62526;50.948;6.590;2022-12-20T09:58:15;11.40;99.50
74171;DHT22;62526;50.948;6.590;2022-12-20T10:00:40;11.40;99.50
74171;DHT22;62526;50.948;6.590;2022-12-20T10:03:08;11.40;99.50
74171;DHT22;62526;50.948;6.590;2022-12-20T10:05:43;11.50;99.50
74171;DHT22;62526;50.948;6.590;2022-12-20T10:08:42;11.50;99.60
74171;DHT22;62526;50.948;6.590;2022-12-20T10:10:53;11.50;99.70
74171;DHT22;62526;50.948;6.590;2022-12-20T10:13:37;11.50;99.60
74171;DHT22;62526;50.948;6.590;2022-12-20T10:16:10;11.60;99.50
74171;DHT22;62526;50.948;6.590;2022-12-20T10:18:41;11.60;99.30
74171;DHT22;62526;50.948;6.590;2022-12-20T10:21:18;11.60;99.20
74171;DHT22;62526;50.948;6.590;2022-12-20T10:23:52;11.60;99.20
74171;DHT22;62526;50.948;6.590;2022-12-20T10:26:13;11.70;99.10
74171;DHT22;62526;50.948;6.590;2022-12-20T10:28:40;11.70;99.10
74171;DHT22;62526;50.948;6.590;2022-12-20T10:31:10;11.70;98.90
74171;DHT22;62526;50.948;6.590;2022-12-20T10:33:34;11.80;98.80
74171;DHT22;62526;50.948;6.590;2022-12-20T10:38:46;11.80;98.60
74171;DHT22;62526;50.948;6.590;2022-12-20T10:41:16;11.90;98.50
74171;DHT22;62526;50.948;6.590;2022-12-20T10:43:43;12.00;98.30
74171;DHT22;62526;50.948;6.590;2022-12-20T10:46:09;12.10;98.00
74171;DHT22;62526;50.948;6.590;2022-12-20T10:48:37;12.20;97.90
74171;DHT22;62526;50.948;6.590;2022-12-20T10:51:16;12.30;97.80
74171;DHT22;62526;50.948;6.590;2022-12-20T10:53:54;12.40;97.50
74171;DHT22;62526;50.948;6.590;2022-12-20T10:56:22;12.50;97.20
74171;DHT22;62526;50.948;6.590;2022-12-20T10:58:51;12.50;97.50
74171;DHT22;62526;50.948;6.590;2022-12-20T11:01:19;12.50;97.40
74171;DHT22;62526;50.948;6.590;2022-12-20T11:03:53;12.60;97.10
74171;DHT22;62526;50.948;6.590;2022-12-20T11:06:20;12.50;97.10
74171;DHT22;62526;50.948;6.590;2022-12-20T11:08:47;12.50;97.20
74171;DHT22;62526;50.948;6.590;2022-12-20T11:11:15;12.50;97.40
74171;DHT22;62526;50.948;6.590;2022-12-20T11:13:40;12.60;97.20
74171;DHT22;62526;50.948;6.590;2022-12-20T11:16:23;12.70;96.50
74171;DHT22;62526;50.948;6.590;2022-12-20T11:19:00;13.00;96.10
74171;DHT22;62526;50.948;6.590;2022-12-20T11:21:31;13.10;95.70
74171;DHT22;62526;50.948;6.590;2022-12-20T11:26:42;13.30;94.90
74171;DHT22;62526;50.948;6.590;2022-12-20T11:29:33;13.40;94.60
74171;DHT22;62526;50.948;6.590;2022-12-20T11:32:07;13.40;94.70
74171;DHT22;62526;50.948;6.590;2022-12-20T11:34:38;13.50;94.30
74171;DHT22;62526;50.948;6.590;2022-12-20T11:37:08;13.50;94.20
74171;DHT22;62526;50.948;6.590;2022-12-20T11:40:14;13.50;94.20
74171;DHT22;62526;50.948;6.590;2022-12-20T11:42:29;13.50;94.10
74171;DHT22;62526;50.948;6.590;2022-12-20T11:45:14;13.60;94.00
74171;DHT22;62526;50.948;6.590;2022-12-20T11:48:00;13.50;94.10
74171;DHT22;62526;50.948;6.590;2022-12-20T11:50:33;13.50;94.20
74171;DHT22;62526;50.948;6.590;2022-12-20T11:52:59;13.50;94.30
74171;DHT22;62526;50.948;6.590;2022-12-20T11:55:27;13.50;94.30
74171;DHT22;62526;50.948;6.590;2022-12-20T12:00:34;13.50;94.20
74171;DHT22;62526;50.948;6.590;2022-12-20T12:03:11;13.60;94.20
74171;DHT22;62526;50.948;6.590;2022-12-20T12:05:43;13.60;94.00
74171;DHT22;62526;50.948;6.590;2022-12-20T12:08:45;13.60;93.90
74171;DHT22;62526;50.948;6.590;2022-12-20T12:10:57;13.60;94.00
74171;DHT22;62526;50.948;6.590;2022-12-20T12:13:24;13.60;93.80
74171;DHT22;62526;50.948;6.590;2022-12-20T12:15:58;13.60;94.10
74171;DHT22;62526;50.948;6.590;2022-12-20T12:18:24;13.60;94.00
74171;DHT22;62526;50.948;6.590;2022-12-20T12:20:54;13.60;94.00
74171;DHT22;62526;50.948;6.590;2022-12-20T12:26:17;13.50;93.80
74171;DHT22;62526;50.948;6.590;2022-12-20T12:28:42;13.60;93.90
74171;DHT22;62526;50.948;6.590;2022-12-20T12:31:14;13.60;93.80
74171;DHT22;62526;50.948;6.590;2022-12-20T12:33:42;13.60;93.80
74171;DHT22;62526;50.948;6.590;2022-12-20T12:36:24;13.70;93.70
74171;DHT22;62526;50.948;6.590;2022-12-20T12:39:11;13.70;93.80
74171;DHT22;62526;50.948;6.590;2022-12-20T12:41:58;13.70;94.10
74171;DHT22;62526;50.948;6.590;2022-12-20T12:45:06;13.60;94.20
74171;DHT22;62526;50.948;6.590;2022-12-20T12:47:29;13.60;94.40
74171;DHT22;62526;50.948;6.590;2022-12-20T12:49:53;13.50;94.30
74171;DHT22;62526;50.948;6.590;2022-12-20T12:52:28;13.40;94.60
74171;DHT22;62526;50.948;6.590;2022-12-20T12:54:55;13.40;94.10
74171;DHT22;62526;50.948;6.590;2022-12-20T12:57:22;13.40;94.30
74171;DHT22;62526;50.948;6.590;2022-12-20T12:59:49;13.30;94.60
74171;DHT22;62526;50.948;6.590;2022-12-20T13:02:22;13.30;94.80
74171;DHT22;62526;50.948;6.590;2022-12-20T13:04:55;13.20;95.00
74171;DHT22;62526;50.948;6.590;2022-12-20T13:07:41;13.10;95.10
74171;DHT22;62526;50.948;6.590;2022-12-20T13:10:55;13.10;95.40
74171;DHT22;62526;50.948;6.590;2022-12-20T13:13:11;13.10;95.60
74171;DHT22;62526;50.948;6.590;2022-12-20T13:15:46;13.00;95.60
74171;DHT22;62526;50.948;6.590;2022-12-20T13:18:24;12.90;95.70
74171;DHT22;62526;50.948;6.590;2022-12-20T13:21:16;12.90;95.80
74171;DHT22;62526;50.948;6.590;2022-12-20T13:23:42;12.80;95.80
74171;DHT22;62526;50.948;6.590;2022-12-20T13:28:56;12.80;96.00
74171;DHT22;62526;50.948;6.590;2022-12-20T13:31:31;12.80;96.00
74171;DHT22;62526;50.948;6.590;2022-12-20T13:33:59;12.70;96.20
74171;DHT22;62526;50.948;6.590;2022-12-20T13:36:30;12.70;96.20
74171;DHT22;62526;50.948;6.590;2022-12-20T13:38:57;12.70;96.40
74171;DHT22;62526;50.948;6.590;2022-12-20T13:41:39;12.70;96.50
74171;DHT22;62526;50.948;6.590;2022-12-20T13:44:39;12.60;96.50
74171;DHT22;62526;50.948;6.590;2022-12-20T13:49:33;12.60;96.60
74171;DHT22;62526;50.948;6.590;2022-12-20T13:52:14;12.60;96.50
74171;DHT22;62526;50.948;6.590;2022-12-20T13:54:43;12.60;96.40
74171;DHT22;62526;50.948;6.590;2022-12-20T13:57:13;12.60;96.40
74171;DHT22;62526;50.948;6.590;2022-12-20T13:59:37;12.70;96.40
74171;DHT22;62526;50.948;6.590;2022-12-20T14:02:08;12.70;96.30
74171;DHT22;62526;50.948;6.590;2022-12-20T14:04:43;12.70;96.30
74171;DHT22;62526;50.948;6.590;2022-12-20T14:07:11;12.70;96.30
74171;DHT22;62526;50.948;6.590;2022-12-20T14:09:36;12.70;96.30
74171;DHT22;62526;50.948;6.590;2022-12-20T14:12:05;12.70;96.60
74171;DHT22;62526;50.948;6.590;2022-12-20T14:14:37;12.70;96.80
74171;DHT22;62526;50.948;6.590;2022-12-20T14:17:15;12.70;97.10
74171;DHT22;62526;50.948;6.590;2022-12-20T14:19:42;12.60;97.40
74171;DHT22;62526;50.948;6.590;2022-12-20T14:22:10;12.60;97.60
74171;DHT22;62526;50.948;6.590;2022-12-20T14:24:36;12.50;98.10
74171;DHT22;62526;50.948;6.590;2022-12-20T14:27:02;12.50;98.40
74171;DHT22;62526;50.948;6.590;2022-12-20T14:29:29;12.40;98.50
74171;DHT22;62526;50.948;6.590;2022-12-20T14:31:56;12.30;98.60
74171;DHT22;62526;50.948;6.590;2022-12-20T14:34:25;12.20;99.20
74171;DHT22;62526;50.948;6.590;2022-12-20T14:37:16;12.20;99.20
74171;DHT22;62526;50.948;6.590;2022-12-20T14:39:27;12.20;99.50
74171;DHT22;62526;50.948;6.590;2022-12-20T14:42:11;12.20;99.80
74171;DHT22;62526;50.948;6.590;2022-12-20T14:44:29;12.10;99.90
74171;DHT22;62526;50.948;6.590;2022-12-20T14:46:57;12.10;99.90
74171;DHT22;62526;50.948;6.590;2022-12-20T14:49:26;12.00;99.90
74171;DHT22;62526;50.948;6.590;2022-12-20T14:51:54;12.00;99.90
74171;DHT22;62526;50.948;6.590;2022-12-20T14:54:22;11.90;99.80
74171;DHT22;62526;50.948;6.590;2022-12-20T14:56:48;11.90;99.90
74171;DHT22;62526;50.948;6.590;2022-12-20T14:59:16;12.10;98.00
74171;DHT22;62526;50.948;6.590;2022-12-20T15:01:42;12.20;97.90
74171;DHT22;62526;50.948;6.590;2022-12-20T15:04:19;12.40;97.70
74171;DHT22;62526;50.948;6.590;2022-12-20T15:06:43;12.60;97.20
74171;DHT22;62526;50.948;6.590;2022-12-20T15:09:11;12.90;95.70
74171;DHT22;62526;50.948;6.590;2022-12-20T15:11:37;12.90;95.60
74171;DHT22;62526;50.948;6.590;2022-12-20T15:14:11;13.00;96.20
74171;DHT22;62526;50.948;6.590;2022-12-20T15:16:31;13.00;96.10
74171;DHT22;62526;50.948;6.590;2022-12-20T15:18:59;13.00;96.40
74171;DHT22;62526;50.948;6.590;2022-12-20T15:21:28;12.90;96.50
74171;DHT22;62526;50.948;6.590;2022-12-20T15:23:55;12.90;96.70
74171;DHT22;62526;50.948;6.590;2022-12-20T15:26:22;12.90;96.80
74171;DHT22;62526;50.948;6.590;2022-12-20T15:28:49;12.90;97.00
74171;DHT22;62526;50.948;6.590;2022-12-20T15:31:17;12.90;97.10
74171;DHT22;62526;50.948;6.590;2022-12-20T15:33:44;12.80;97.40
74171;DHT22;62526;50.948;6.590;2022-12-20T15:36:16;12.70;97.50
74171;DHT22;62526;50.948;6.590;2022-12-20T15:38:42;12.60;97.60
74171;DHT22;62526;50.948;6.590;2022-12-20T15:41:12;12.50;97.80
74171;DHT22;62526;50.948;6.590;2022-12-20T15:43:37;12.40;98.10
74171;DHT22;62526;50.948;6.590;2022-12-20T15:46:04;12.30;98.40
74171;DHT22;62526;50.948;6.590;2022-12-20T15:48:30;12.20;98.60
74171;DHT22;62526;50.948;6.590;2022-12-20T15:50:58;12.10;98.70
74171;DHT22;62526;50.948;6.590;2022-12-20T15:53:32;12.10;98.80
74171;DHT22;62526;50.948;6.590;2022-12-20T15:55:58;12.00;98.90
74171;DHT22;62526;50.948;6.590;2022-12-20T15:58:25;11.90;98.90
74171;DHT22;62526;50.948;6.590;2022-12-20T16:00:53;11.80;98.90
74171;DHT22;62526;50.948;6.590;2022-12-20T16:03:20;11.70;98.90
74171;DHT22;62526;50.948;6.590;2022-12-20T16:05:46;11.70;99.10
74171;DHT22;62526;50.948;6.590;2022-12-20T16:08:12;11.50;99.30
74171;DHT22;62526;50.948;6.590;2022-12-20T16:10:40;11.50;99.60
74171;DHT22;62526;50.948;6.590;2022-12-20T16:13:09;11.50;99.90
74171;DHT22;62526;50.948;6.590;2022-12-20T16:15:33;11.60;99.90
74171;DHT22;62526;50.948;6.590;2022-12-20T16:18:00;11.60;99.90
74171;DHT22;62526;50.948;6.590;2022-12-20T16:20:26;11.60;99.90
74171;DHT22;62526;50.948;6.590;2022-12-20T16:22:53;11.60;99.90
74171;DHT22;62526;50.948;6.590;2022-12-20T16:25:24;11.60;99.90
74171;DHT22;62526;50.948;6.590;2022-12-20T16:27:49;11.60;99.90
74171;DHT22;62526;50.948;6.590;2022-12-20T16:30:16;11.60;99.90
74171;DHT22;62526;50.948;6.590;2022-12-20T16:32:42;11.60;99.90
74171;DHT22;62526;50.948;6.590;2022-12-20T16:35:27;11.60;99.90
74171;DHT22;62526;50.948;6.590;2022-12-20T16:37:53;11.60;99.90
74171;DHT22;62526;50.948;6.590;2022-12-20T16:40:19;11.60;99.90
74171;DHT22;62526;50.948;6.590;2022-12-20T16:42:46;11.60;99.90
74171;DHT22;62526;50.948;6.590;2022-12-20T16:45:14;11.50;99.90
74171;DHT22;62526;50.948;6.590;2022-12-20T16:47:39;11.50;99.90
74171;DHT22;62526;50.948;6.590;2022-12-20T16:50:07;11.40;99.90